sensor_id;sensor_type;location;lat;lon;timestamp;temperature;humidity
59208;DHT22;44977;53.132;6.408;2023-01-15T00:02:51;6.40;99.90
59208;DHT22;44977;53.132;6.408;2023-01-15T00:07:52;6.40;99.90
59208;DHT22;44977;53.132;6.408;2023-01-15T00:12:53;6.40;99.90
59208;DHT22;44977;53.132;6.408;2023-01-15T00:17:53;6.40;99.90
59208;DHT22;44977;53.132;6.408;2023-01-15T00:22:54;6.40;99.90
59208;DHT22;44977;53.132;6.408;2023-01-15T00:27:55;6.40;99.90
59208;DHT22;44977;53.132;6.408;2023-01-15T00:32:57;6.40;99.90
59208;DHT22;44977;53.132;6.408;2023-01-15T00:37:58;6.40;99.90
59208;DHT22;44977;53.132;6.408;2023-01-15T00:42:59;6.40;99.90
59208;DHT22;44977;53.132;6.408;2023-01-15T00:48:00;6.50;99.90
59208;DHT22;44977;53.132;6.408;2023-01-15T00:53:00;6.40;99.90
59208;DHT22;44977;53.132;6.408;2023-01-15T00:58:01;6.40;99.90
59208;DHT22;44977;53.132;6.408;2023-01-15T01:03:02;6.40;99.90
59208;DHT22;44977;53.132;6.408;2023-01-15T01:08:03;6.40;99.90
59208;DHT22;44977;53.132;6.408;2023-01-15T01:13:03;6.40;99.90
59208;DHT22;44977;53.132;6.408;2023-01-15T01:18:05;6.40;99.90
59208;DHT22;44977;53.132;6.408;2023-01-15T01:23:06;6.40;99.90
59208;DHT22;44977;53.132;6.408;2023-01-15T01:28:06;6.40;99.90
59208;DHT22;44977;53.132;6.408;2023-01-15T01:33:07;6.40;99.90
59208;DHT22;44977;53.132;6.408;2023-01-15T01:38:08;6.40;99.90
59208;DHT22;44977;53.132;6.408;2023-01-15T01:48:40;6.40;99.90
59208;DHT22;44977;53.132;6.408;2023-01-15T01:53:40;6.30;99.90
59208;DHT22;44977;53.132;6.408;2023-01-15T01:58:41;6.40;99.90
59208;DHT22;44977;53.132;6.408;2023-01-15T02:03:42;6.40;99.90
59208;DHT22;44977;53.132;6.408;2023-01-15T02:08:43;6.40;99.90
59208;DHT22;44977;53.132;6.408;2023-01-15T02:19:44;6.40;99.90
59208;DHT22;44977;53.132;6.408;2023-01-15T02:30:40;6.30;99.90
59208;DHT22;44977;53.132;6.408;2023-01-15T02:35:49;6.20;99.90
59208;DHT22;44977;53.132;6.408;2023-01-15T02:40:53;6.30;99.90
59208;DHT22;44977;53.132;6.408;2023-01-15T02:45:57;6.20;99.90
59208;DHT22;44977;53.132;6.408;2023-01-15T02:51:11;6.20;99.90
59208;DHT22;44977;53.132;6.408;2023-01-15T02:56:17;6.30;99.90
59208;DHT22;44977;53.132;6.408;2023-01-15T03:01:25;6.30;99.90
59208;DHT22;44977;53.132;6.408;2023-01-15T03:12:27;6.20;99.90
59208;DHT22;44977;53.132;6.408;2023-01-15T03:17:38;6.20;99.90
59208;DHT22;44977;53.132;6.408;2023-01-15T03:22:43;6.20;99.90
59208;DHT22;44977;53.132;6.408;2023-01-15T03:27:45;6.30;99.90
59208;DHT22;44977;53.132;6.408;2023-01-15T03:32:46;6.20;99.90
59208;DHT22;44977;53.132;6.408;2023-01-15T03:37:47;6.20;99.90
59208;DHT22;44977;53.132;6.408;2023-01-15T03:42:56;6.30;99.90
59208;DHT22;44977;53.132;6.408;2023-01-15T03:48:30;6.30;99.90
59208;DHT22;44977;53.132;6.408;2023-01-15T03:53:42;6.30;99.90
59208;DHT22;44977;53.132;6.408;2023-01-15T03:58:49;6.30;99.90
59208;DHT22;44977;53.132;6.408;2023-01-15T04:03:53;6.30;99.90
59208;DHT22;44977;53.132;6.408;2023-01-15T04:08:55;6.20;99.90
59208;DHT22;44977;53.132;6.408;2023-01-15T04:13:57;6.20;99.90
59208;DHT22;44977;53.132;6.408;2023-01-15T04:18:58;6.20;99.90
59208;DHT22;44977;53.132;6.408;2023-01-15T04:23:59;6.20;99.90
59208;DHT22;44977;53.132;6.408;2023-01-15T04:28:59;6.20;99.90
59208;DHT22;44977;53.132;6.408;2023-01-15T04:34:01;6.10;99.90
59208;DHT22;44977;53.132;6.408;2023-01-15T04:39:03;6.10;99.90
59208;DHT22;44977;53.132;6.408;2023-01-15T04:44:03;6.10;99.90
59208;DHT22;44977;53.132;6.408;2023-01-15T04:49:12;6.00;99.90
59208;DHT22;44977;53.132;6.408;2023-01-15T04:54:15;6.10;99.90
59208;DHT22;44977;53.132;6.408;2023-01-15T04:59:19;6.10;99.90
59208;DHT22;44977;53.132;6.408;2023-01-15T05:04:20;6.10;99.90
59208;DHT22;44977;53.132;6.408;2023-01-15T05:09:21;6.00;99.90
59208;DHT22;44977;53.132;6.408;2023-01-15T05:14:22;6.00;99.90
59208;DHT22;44977;53.132;6.408;2023-01-15T05:19:22;6.00;99.90
59208;DHT22;44977;53.132;6.408;2023-01-15T05:24:23;5.90;99.90
59208;DHT22;44977;53.132;6.408;2023-01-15T05:29:24;5.90;99.90
59208;DHT22;44977;53.132;6.408;2023-01-15T05:34:25;5.80;99.90
59208;DHT22;44977;53.132;6.408;2023-01-15T05:39:25;5.70;99.90
59208;DHT22;44977;53.132;6.408;2023-01-15T05:44:27;5.70;99.90
59208;DHT22;44977;53.132;6.408;2023-01-15T05:49:29;5.70;99.90
59208;DHT22;44977;53.132;6.408;2023-01-15T05:54:34;5.70;99.90
59208;DHT22;44977;53.132;6.408;2023-01-15T05:59:35;5.70;99.90
59208;DHT22;44977;53.132;6.408;2023-01-15T06:04:36;5.70;99.90
59208;DHT22;44977;53.132;6.408;2023-01-15T06:09:36;5.70;99.90
59208;DHT22;44977;53.132;6.408;2023-01-15T06:14:37;5.60;99.90
59208;DHT22;44977;53.132;6.408;2023-01-15T06:19:38;5.70;99.90
59208;DHT22;44977;53.132;6.408;2023-01-15T06:24:38;5.70;99.90
59208;DHT22;44977;53.132;6.408;2023-01-15T06:29:39;5.70;99.90
59208;DHT22;44977;53.132;6.408;2023-01-15T06:34:40;5.60;99.90
59208;DHT22;44977;53.132;6.408;2023-01-15T06:39:43;5.60;99.90
59208;DHT22;44977;53.132;6.408;2023-01-15T06:44:43;5.50;99.90
59208;DHT22;44977;53.132;6.408;2023-01-15T06:50:03;5.50;99.90
59208;DHT22;44977;53.132;6.408;2023-01-15T06:55:04;5.60;99.90
59208;DHT22;44977;53.132;6.408;2023-01-15T07:00:08;5.50;99.90
59208;DHT22;44977;53.132;6.408;2023-01-15T07:05:09;5.50;99.90
59208;DHT22;44977;53.132;6.408;2023-01-15T07:10:10;5.50;99.90
59208;DHT22;44977;53.132;6.408;2023-01-15T07:15:11;5.50;99.90
59208;DHT22;44977;53.132;6.408;2023-01-15T07:20:11;5.50;99.90
59208;DHT22;44977;53.132;6.408;2023-01-15T07:25:12;5.50;99.90
59208;DHT22;44977;53.132;6.408;2023-01-15T07:30:13;5.50;99.90
59208;DHT22;44977;53.132;6.408;2023-01-15T07:35:14;5.50;99.90
59208;DHT22;44977;53.132;6.408;2023-01-15T07:40:15;5.50;99.90
59208;DHT22;44977;53.132;6.408;2023-01-15T07:45:16;5.50;99.90
59208;DHT22;44977;53.132;6.408;2023-01-15T07:50:35;5.50;99.90
59208;DHT22;44977;53.132;6.408;2023-01-15T07:55:36;5.50;99.90
59208;DHT22;44977;53.132;6.408;2023-01-15T08:00:37;5.50;99.90
59208;DHT22;44977;53.132;6.408;2023-01-15T08:05:37;5.40;99.90
59208;DHT22;44977;53.132;6.408;2023-01-15T08:10:38;5.50;99.90
59208;DHT22;44977;53.132;6.408;2023-01-15T08:15:59;5.60;99.90
59208;DHT22;44977;53.132;6.408;2023-01-15T08:20:59;5.60;99.90
59208;DHT22;44977;53.132;6.408;2023-01-15T08:26:00;5.70;99.90
59208;DHT22;44977;53.132;6.408;2023-01-15T08:31:01;5.70;99.90
59208;DHT22;44977;53.132;6.408;2023-01-15T08:36:02;5.70;99.90
59208;DHT22;44977;53.132;6.408;2023-01-15T08:41:02;5.60;99.90
59208;DHT22;44977;53.132;6.408;2023-01-15T08:46:04;5.60;99.90
59208;DHT22;44977;53.132;6.408;2023-01-15T08:51:07;5.60;99.90
59208;DHT22;44977;53.132;6.408;2023-01-15T08:56:15;5.60;99.90
59208;DHT22;44977;53.132;6.408;2023-01-15T09:01:16;5.60;99.90
59208;DHT22;44977;53.132;6.408;2023-01-15T09:06:17;5.50;99.90
59208;DHT22;44977;53.132;6.408;2023-01-15T09:11:17;5.50;99.90
59208;DHT22;44977;53.132;6.408;2023-01-15T09:16:18;5.60;99.90
59208;DHT22;44977;53.132;6.408;2023-01-15T09:21:19;5.60;99.90
59208;DHT22;44977;53.132;6.408;2023-01-15T09:26:38;5.60;99.90
59208;DHT22;44977;53.132;6.408;2023-01-15T09:31:39;5.70;99.90
59208;DHT22;44977;53.132;6.408;2023-01-15T09:36:39;5.70;99.90
59208;DHT22;44977;53.132;6.408;2023-01-15T09:42:30;5.90;99.90
59208;DHT22;44977;53.132;6.408;2023-01-15T09:47:38;6.00;99.90
59208;DHT22;44977;53.132;6.408;2023-01-15T09:57:45;6.10;99.90
59208;DHT22;44977;53.132;6.408;2023-01-15T10:02:58;6.10;99.90
59208;DHT22;44977;53.132;6.408;2023-01-15T10:08:19;6.30;99.90
59208;DHT22;44977;53.132;6.408;2023-01-15T10:13:46;6.40;99.90
59208;DHT22;44977;53.132;6.408;2023-01-15T10:18:47;6.60;99.90
59208;DHT22;44977;53.132;6.408;2023-01-15T10:30:05;6.90;99.90
59208;DHT22;44977;53.132;6.408;2023-01-15T10:50:44;7.10;99.90
59208;DHT22;44977;53.132;6.408;2023-01-15T10:56:00;7.10;99.90
59208;DHT22;44977;53.132;6.408;2023-01-15T11:01:05;7.10;99.90
59208;DHT22;44977;53.132;6.408;2023-01-15T11:06:15;7.20;99.90
59208;DHT22;44977;53.132;6.408;2023-01-15T11:11:22;7.20;99.90
59208;DHT22;44977;53.132;6.408;2023-01-15T11:16:43;7.20;99.90
59208;DHT22;44977;53.132;6.408;2023-01-15T11:22:16;7.40;99.90
59208;DHT22;44977;53.132;6.408;2023-01-15T11:27:21;7.40;99.90
59208;DHT22;44977;53.132;6.408;2023-01-15T11:32:35;7.40;99.90
59208;DHT22;44977;53.132;6.408;2023-01-15T11:37:36;7.40;99.90
59208;DHT22;44977;53.132;6.408;2023-01-15T11:42:37;7.40;99.90
59208;DHT22;44977;53.132;6.408;2023-01-15T11:47:56;7.30;99.90
59208;DHT22;44977;53.132;6.408;2023-01-15T11:53:20;7.30;99.90
59208;DHT22;44977;53.132;6.408;2023-01-15T11:58:21;7.30;99.90
59208;DHT22;44977;53.132;6.408;2023-01-15T12:03:26;7.40;99.90
59208;DHT22;44977;53.132;6.408;2023-01-15T12:08:56;7.40;99.90
59208;DHT22;44977;53.132;6.408;2023-01-15T12:30:54;7.20;99.90
59208;DHT22;44977;53.132;6.408;2023-01-15T12:41:25;7.10;99.90
59208;DHT22;44977;53.132;6.408;2023-01-15T12:46:47;6.90;99.90
59208;DHT22;44977;53.132;6.408;2023-01-15T12:57:14;6.20;99.90
59208;DHT22;44977;53.132;6.408;2023-01-15T13:07:36;5.90;99.90
59208;DHT22;44977;53.132;6.408;2023-01-15T13:12:39;5.90;99.90
59208;DHT22;44977;53.132;6.408;2023-01-15T13:17:45;5.90;99.90
59208;DHT22;44977;53.132;6.408;2023-01-15T13:23:07;5.80;99.90
59208;DHT22;44977;53.132;6.408;2023-01-15T13:33:53;5.80;99.90
59208;DHT22;44977;53.132;6.408;2023-01-15T13:38:59;5.80;99.90
59208;DHT22;44977;53.132;6.408;2023-01-15T13:44:00;5.80;99.90
59208;DHT22;44977;53.132;6.408;2023-01-15T13:49:03;5.80;99.90
59208;DHT22;44977;53.132;6.408;2023-01-15T13:54:13;5.80;99.90
59208;DHT22;44977;53.132;6.408;2023-01-15T13:59:39;5.90;99.90
59208;DHT22;44977;53.132;6.408;2023-01-15T14:04:40;5.90;99.90
59208;DHT22;44977;53.132;6.408;2023-01-15T14:09:41;5.90;99.90
59208;DHT22;44977;53.132;6.408;2023-01-15T14:14:54;5.90;99.90
59208;DHT22;44977;53.132;6.408;2023-01-15T14:36:08;6.00;99.90
59208;DHT22;44977;53.132;6.408;2023-01-15T14:41:10;6.00;99.90
59208;DHT22;44977;53.132;6.408;2023-01-15T14:46:32;6.00;99.90
59208;DHT22;44977;53.132;6.408;2023-01-15T14:51:45;6.00;99.90
59208;DHT22;44977;53.132;6.408;2023-01-15T14:56:50;6.10;99.90
59208;DHT22;44977;53.132;6.408;2023-01-15T15:01:59;6.00;99.90
59208;DHT22;44977;53.132;6.408;2023-01-15T15:07:02;6.10;99.90
59208;DHT22;44977;53.132;6.408;2023-01-15T15:23:41;6.20;99.90
59208;DHT22;44977;53.132;6.408;2023-01-15T15:28:48;6.20;99.90
59208;DHT22;44977;53.132;6.408;2023-01-15T15:33:55;6.20;99.90
59208;DHT22;44977;53.132;6.408;2023-01-15T15:39:01;6.20;99.90
59208;DHT22;44977;53.132;6.408;2023-01-15T15:44:03;6.20;99.90
59208;DHT22;44977;53.132;6.408;2023-01-15T15:49:23;6.20;99.90
59208;DHT22;44977;53.132;6.408;2023-01-15T15:54:25;6.10;99.90
59208;DHT22;44977;53.132;6.408;2023-01-15T16:04:52;6.10;99.90
59208;DHT22;44977;53.132;6.408;2023-01-15T16:10:13;6.10;99.90
59208;DHT22;44977;53.132;6.408;2023-01-15T16:15:24;6.10;99.90
59208;DHT22;44977;53.132;6.408;2023-01-15T16:20:27;6.10;99.90
59208;DHT22;44977;53.132;6.408;2023-01-15T16:25:39;6.00;99.90
59208;DHT22;44977;53.132;6.408;2023-01-15T16:30:40;6.00;99.90
59208;DHT22;44977;53.132;6.408;2023-01-15T16:35:41;6.00;99.90
59208;DHT22;44977;53.132;6.408;2023-01-15T16:40:44;5.90;99.90
59208;DHT22;44977;53.132;6.408;2023-01-15T16:46:06;6.00;99.90
59208;DHT22;44977;53.132;6.408;2023-01-15T16:56:47;5.80;99.90
59208;DHT22;44977;53.132;6.408;2023-01-15T17:01:47;5.80;99.90
59208;DHT22;44977;53.132;6.408;2023-01-15T17:06:54;5.80;99.90
59208;DHT22;44977;53.132;6.408;2023-01-15T17:11:55;5.80;99.90
59208;DHT22;44977;53.132;6.408;2023-01-15T17:17:16;5.80;99.90
59208;DHT22;44977;53.132;6.408;2023-01-15T17:22:25;5.80;99.90
59208;DHT22;44977;53.132;6.408;2023-01-15T17:27:28;5.80;99.90
59208;DHT22;44977;53.132;6.408;2023-01-15T17:32:31;5.80;99.90
59208;DHT22;44977;53.132;6.408;2023-01-15T17:37:35;5.70;99.90
59208;DHT22;44977;53.132;6.408;2023-01-15T17:42:36;5.70;99.90
59208;DHT22;44977;53.132;6.408;2023-01-15T17:47:36;5.70;99.90
59208;DHT22;44977;53.132;6.408;2023-01-15T17:52:37;5.70;99.90
59208;DHT22;44977;53.132;6.408;2023-01-15T17:57:38;5.70;99.90
59208;DHT22;44977;53.132;6.408;2023-01-15T18:02:58;5.80;99.90
59208;DHT22;44977;53.132;6.408;2023-01-15T18:08:17;5.80;99.90
59208;DHT22;44977;53.132;6.408;2023-01-15T18:13:18;5.70;99.90
59208;DHT22;44977;53.132;6.408;2023-01-15T18:18:19;5.70;99.90
59208;DHT22;44977;53.132;6.408;2023-01-15T18:23:20;5.60;99.90
59208;DHT22;44977;53.132;6.408;2023-01-15T18:28:20;5.50;99.90
59208;DHT22;44977;53.132;6.408;2023-01-15T18:33:21;5.50;99.90
59208;DHT22;44977;53.132;6.408;2023-01-15T18:38:22;5.50;99.90
59208;DHT22;44977;53.132;6.408;2023-01-15T18:43:22;5.40;99.90
59208;DHT22;44977;53.132;6.408;2023-01-15T18:48:42;5.50;99.90
59208;DHT22;44977;53.132;6.408;2023-01-15T18:53:42;5.40;99.90
59208;DHT22;44977;53.132;6.408;2023-01-15T18:58:43;5.40;99.90
59208;DHT22;44977;53.132;6.408;2023-01-15T19:03:44;5.40;99.90
59208;DHT22;44977;53.132;6.408;2023-01-15T19:08:44;5.40;99.90
59208;DHT22;44977;53.132;6.408;2023-01-15T19:13:45;5.50;99.90
59208;DHT22;44977;53.132;6.408;2023-01-15T19:19:06;5.50;99.90
59208;DHT22;44977;53.132;6.408;2023-01-15T19:24:06;5.40;99.90
59208;DHT22;44977;53.132;6.408;2023-01-15T19:29:07;5.40;99.90
59208;DHT22;44977;53.132;6.408;2023-01-15T19:34:08;5.40;99.90
59208;DHT22;44977;53.132;6.408;2023-01-15T19:39:11;5.30;99.90
59208;DHT22;44977;53.132;6.408;2023-01-15T19:44:11;5.30;99.90
59208;DHT22;44977;53.132;6.408;2023-01-15T19:49:34;5.30;99.90
59208;DHT22;44977;53.132;6.408;2023-01-15T19:54:53;5.40;99.90
59208;DHT22;44977;53.132;6.408;2023-01-15T19:59:59;5.30;99.90
59208;DHT22;44977;53.132;6.408;2023-01-15T20:04:59;5.20;99.90
59208;DHT22;44977;53.132;6.408;2023-01-15T20:10:00;5.30;99.90
59208;DHT22;44977;53.132;6.408;2023-01-15T20:15:01;5.20;99.90
59208;DHT22;44977;53.132;6.408;2023-01-15T20:20:02;5.20;99.90
59208;DHT22;44977;53.132;6.408;2023-01-15T20:25:04;5.30;99.90
59208;DHT22;44977;53.132;6.408;2023-01-15T20:30:08;5.30;99.90
59208;DHT22;44977;53.132;6.408;2023-01-15T20:35:12;5.30;99.90
59208;DHT22;44977;53.132;6.408;2023-01-15T20:40:14;5.30;99.90
59208;DHT22;44977;53.132;6.408;2023-01-15T20:45:15;5.30;99.90
59208;DHT22;44977;53.132;6.408;2023-01-15T20:50:17;5.30;99.90
59208;DHT22;44977;53.132;6.408;2023-01-15T20:55:18;5.30;99.90
59208;DHT22;44977;53.132;6.408;2023-01-15T21:00:20;5.30;99.90
59208;DHT22;44977;53.132;6.408;2023-01-15T21:05:21;5.30;99.90
59208;DHT22;44977;53.132;6.408;2023-01-15T21:10:22;5.30;99.90
59208;DHT22;44977;53.132;6.408;2023-01-15T21:15:24;5.30;99.90
59208;DHT22;44977;53.132;6.408;2023-01-15T21:20:25;5.30;99.90
59208;DHT22;44977;53.132;6.408;2023-01-15T21:25:26;5.20;99.90
59208;DHT22;44977;53.132;6.408;2023-01-15T21:30:26;5.20;99.90
59208;DHT22;44977;53.132;6.408;2023-01-15T21:35:27;5.20;99.90
59208;DHT22;44977;53.132;6.408;2023-01-15T21:40:28;5.20;99.90
59208;DHT22;44977;53.132;6.408;2023-01-15T21:45:28;5.10;99.90
59208;DHT22;44977;53.132;6.408;2023-01-15T21:50:29;5.10;99.90
59208;DHT22;44977;53.132;6.408;2023-01-15T21:55:29;5.10;99.90
59208;DHT22;44977;53.132;6.408;2023-01-15T22:00:30;5.10;99.90
59208;DHT22;44977;53.132;6.408;2023-01-15T22:05:32;5.10;99.90
59208;DHT22;44977;53.132;6.408;2023-01-15T22:10:33;5.10;99.90
59208;DHT22;44977;53.132;6.408;2023-01-15T22:15:33;5.10;99.90
59208;DHT22;44977;53.132;6.408;2023-01-15T22:20:34;5.10;99.90
59208;DHT22;44977;53.132;6.408;2023-01-15T22:25:35;5.10;99.90
59208;DHT22;44977;53.132;6.408;2023-01-15T22:30:37;5.00;99.90
59208;DHT22;44977;53.132;6.408;2023-01-15T22:35:37;5.10;99.90
59208;DHT22;44977;53.132;6.408;2023-01-15T22:40:38;5.10;99.90
59208;DHT22;44977;53.132;6.408;2023-01-15T22:45:39;5.10;99.90
59208;DHT22;44977;53.132;6.408;2023-01-15T22:50:39;5.00;99.90
59208;DHT22;44977;53.132;6.408;2023-01-15T22:55:40;5.00;99.90
59208;DHT22;44977;53.132;6.408;2023-01-15T23:00:41;5.00;99.90
59208;DHT22;44977;53.132;6.408;2023-01-15T23:05:41;5.00;99.90
59208;DHT22;44977;53.132;6.408;2023-01-15T23:10:43;5.00;99.90
59208;DHT22;44977;53.132;6.408;2023-01-15T23:15:45;5.00;99.90
59208;DHT22;44977;53.132;6.408;2023-01-15T23:21:04;5.00;99.90
59208;DHT22;44977;53.132;6.408;2023-01-15T23:26:16;4.90;99.90
59208;DHT22;44977;53.132;6.408;2023-01-15T23:31:18;4.90;99.90
59208;DHT22;44977;53.132;6.408;2023-01-15T23:36:19;4.80;99.90
59208;DHT22;44977;53.132;6.408;2023-01-15T23:41:22;4.70;99.90
59208;DHT22;44977;53.132;6.408;2023-01-15T23:46:43;4.70;99.90
59208;DHT22;44977;53.132;6.408;2023-01-15T23:51:43;4.70;99.90
59208;DHT22;44977;53.132;6.408;2023-01-15T23:56:44;4.70;99.90
